Main page
METAR-TAF:

METAR-TAF

Airports :

Houston Executive Airport

Houston, Texas, United States

latitude: 29-48-18N, longitude: 095-53-52W, elevation: 167 ft

Current weather observation

The report was made 18 minutes ago, at 20:15 UTC
Wind 17 mph from the South/Southeast with gusts up to 23 mph
Temperature 90°F
Humidity 67%
Pressure 29.83 in. Hg
Visibility: 10 miles
Few clouds at a height of 3300 ft
Few clouds at a height of 4100 ft

METAR: KTME 172015Z AUTO 15015G20KT 10SM FEW033 FEW041 32/25 A2983 RMK AO2

Time: 14:33 (20:33 UTC)


TAF: missing

Weather observations and forecasts of more than 4000 airports (METAR and TAF reports).

The available stations are represented by yellow and red dots on the map.

Hover mouse over dot to see the name of the station.

Then click to see weather observations and forecasts.

To change the map : click on the green buttons with a black cross to zoom in, on the green button with a dash to zoom out, or on the green arrows for adjacent maps.


METAR-TAF: